Time;durP1;ratioP1;P1;durP2;ratioP2;P2;SDS_P1;SDS_P2;PMS_P1;PMS_P2;Temp;Humidity;BMP_temperature;BMP_pressure;BME280_temperature;BME280_humidity;BME280_pressure;Samples;Min_cycle;Max_cycle;Signal;HPM_P1;HPM_P2
2023/10/21 00:02:29;;;;;;;21.60;8.85;;;;;;;13.81;100.00;98321.16;5205953;28;20051;-83
2023/10/21 00:05:00;;;;;;;21.95;8.88;;;;;;;13.94;100.00;98333.44;5208347;28;20083;-83
2023/10/21 00:07:31;;;;;;;15.48;7.97;;;;;;;14.02;100.00;98329.50;5202749;28;20032;-82
2023/10/21 00:10:01;;;;;;;21.40;7.65;;;;;;;14.06;100.00;98328.75;5207725;28;20017;-84
2023/10/21 00:12:33;;;;;;;19.20;8.10;;;;;;;14.11;100.00;98331.53;5205642;28;20075;-86
2023/10/21 00:15:06;;;;;;;15.82;7.32;;;;;;;14.14;100.00;98331.00;5202729;28;20518;-85
2023/10/21 00:17:37;;;;;;;15.30;7.35;;;;;;;14.14;100.00;98338.28;5192688;28;20128;-86
2023/10/21 00:20:08;;;;;;;18.08;7.13;;;;;;;14.13;100.00;98331.25;5186067;28;20093;-86
2023/10/21 00:22:39;;;;;;;22.52;6.43;;;;;;;14.15;100.00;98329.94;5201701;28;20056;-86
2023/10/21 00:25:09;;;;;;;21.52;6.97;;;;;;;14.17;100.00;98337.78;5201750;28;20414;-86
2023/10/21 00:27:40;;;;;;;19.55;5.65;;;;;;;14.15;100.00;98335.31;5205231;28;20036;-84
2023/10/21 00:30:11;;;;;;;13.02;5.63;;;;;;;14.17;100.00;98341.31;5193556;28;20040;-86
2023/10/21 00:32:42;;;;;;;21.88;6.30;;;;;;;14.19;100.00;98341.84;5188280;28;20037;-86
2023/10/21 00:35:12;;;;;;;19.05;6.35;;;;;;;14.18;100.00;98342.94;5203380;28;20096;-86
2023/10/21 00:37:43;;;;;;;17.48;5.60;;;;;;;14.21;100.00;98353.22;5201456;28;20037;-86
2023/10/21 00:40:13;;;;;;;11.38;5.65;;;;;;;14.19;100.00;98359.91;5198730;28;20108;-86
2023/10/21 00:42:44;;;;;;;14.07;6.10;;;;;;;14.17;100.00;98360.19;5188000;28;20036;-86
2023/10/21 00:45:15;;;;;;;18.92;5.68;;;;;;;14.14;100.00;98363.34;5201887;28;20033;-87
2023/10/21 00:47:45;;;;;;;10.40;5.60;;;;;;;14.16;100.00;98363.13;5178131;28;20373;-86
2023/10/21 00:50:16;;;;;;;12.57;5.78;;;;;;;14.17;100.00;98362.88;5200130;28;20609;-86
2023/10/21 00:52:47;;;;;;;12.10;5.68;;;;;;;14.20;100.00;98365.06;5201166;28;20041;-86
2023/10/21 00:55:18;;;;;;;13.52;6.10;;;;;;;14.22;100.00;98381.81;5199435;28;20037;-86
2023/10/21 00:57:49;;;;;;;14.55;5.15;;;;;;;14.20;100.00;98377.72;5201212;28;20400;-86
2023/10/21 01:00:20;;;;;;;16.60;5.97;;;;;;;14.23;100.00;98371.84;5199329;28;20029;-86
2023/10/21 01:02:51;;;;;;;8.35;5.47;;;;;;;14.20;100.00;98385.81;5186082;28;20176;-84
2023/10/21 01:05:22;;;;;;;12.27;5.95;;;;;;;14.20;100.00;98380.41;5187467;28;20108;-85
2023/10/21 01:07:58;;;;;;;15.02;5.75;;;;;;;14.19;100.00;98392.28;5199100;28;20116;-84
2023/10/21 01:10:29;;;;;;;10.75;4.90;;;;;;;14.21;100.00;98401.75;5183737;28;20042;-84
2023/10/21 01:12:59;;;;;;;10.85;5.22;;;;;;;14.17;100.00;98399.81;5200893;28;20105;-84
2023/10/21 01:15:30;;;;;;;16.85;5.20;;;;;;;14.20;100.00;98405.50;5202635;28;20025;-85
2023/10/21 01:18:01;;;;;;;10.85;5.00;;;;;;;14.22;100.00;98407.97;5200690;28;20129;-84
2023/10/21 01:20:32;;;;;;;12.10;4.55;;;;;;;14.21;100.00;98409.03;5203266;28;20074;-84
2023/10/21 01:23:03;;;;;;;11.73;4.85;;;;;;;14.14;100.00;98405.69;5200385;28;20339;-85
2023/10/21 01:25:34;;;;;;;13.80;4.90;;;;;;;14.13;100.00;98412.16;5202290;28;20403;-85
2023/10/21 01:28:05;;;;;;;16.13;5.63;;;;;;;14.11;100.00;98415.09;5200945;28;20036;-84
2023/10/21 01:30:36;;;;;;;12.90;5.03;;;;;;;14.06;100.00;98415.03;5200745;28;20033;-85
2023/10/21 01:33:06;;;;;;;14.00;5.03;;;;;;;14.10;100.00;98426.13;5199597;28;20108;-85
2023/10/21 01:35:37;;;;;;;20.05;5.07;;;;;;;14.12;100.00;98424.00;5197871;28;20120;-85
2023/10/21 01:38:07;;;;;;;14.18;5.28;;;;;;;14.11;100.00;98428.59;5200403;28;20053;-85
2023/10/21 01:40:38;;;;;;;27.63;5.40;;;;;;;14.07;100.00;98435.53;5200328;28;20033;-84
2023/10/21 01:43:09;;;;;;;11.00;4.78;;;;;;;14.14;100.00;98429.94;5201120;28;20091;-84
2023/10/21 01:45:40;;;;;;;12.95;5.18;;;;;;;14.05;100.00;98443.03;5190006;28;20030;-85
2023/10/21 01:48:10;;;;;;;11.45;4.93;;;;;;;14.14;100.00;98444.25;5201992;28;20029;-85
2023/10/21 01:50:41;;;;;;;11.02;5.00;;;;;;;14.11;100.00;98450.16;5177610;28;20026;-83
2023/10/21 01:53:12;;;;;;;11.93;5.00;;;;;;;14.15;100.00;98455.84;5200851;28;20030;-84
2023/10/21 01:55:42;;;;;;;18.63;5.30;;;;;;;14.15;100.00;98455.84;5202073;28;20029;-85
2023/10/21 01:58:16;;;;;;;14.20;5.43;;;;;;;14.22;100.00;98464.59;5201363;28;20038;-83
2023/10/21 02:00:46;;;;;;;14.38;5.25;;;;;;;14.22;100.00;98465.41;5200826;28;20087;-83
2023/10/21 02:03:17;;;;;;;10.05;4.68;;;;;;;14.23;100.00;98468.91;5201475;28;20125;-82
2023/10/21 02:05:48;;;;;;;12.32;5.03;;;;;;;14.25;100.00;98470.28;5202399;28;20038;-82
2023/10/21 02:08:23;;;;;;;13.18;5.35;;;;;;;14.22;100.00;98488.88;5202052;28;20079;-85
2023/10/21 02:10:54;;;;;;;17.13;5.07;;;;;;;14.18;100.00;98488.53;5184951;28;20034;-84
2023/10/21 02:13:25;;;;;;;17.27;5.45;;;;;;;14.18;100.00;98482.31;5200348;28;20079;-85
2023/10/21 02:15:57;;;;;;;13.70;5.82;;;;;;;14.17;100.00;98486.09;5189171;28;20025;-85
2023/10/21 02:18:28;;;;;;;13.52;5.03;;;;;;;14.13;100.00;98495.72;5200653;28;20045;-84
2023/10/21 02:20:58;;;;;;;11.85;5.30;;;;;;;14.22;100.00;98499.66;5199525;28;20395;-86
2023/10/21 02:23:30;;;;;;;11.50;4.97;;;;;;;14.20;100.00;98505.28;5184142;28;20052;-84
2023/10/21 02:26:03;;;;;;;12.45;4.85;;;;;;;14.22;100.00;98505.03;5198586;28;20119;-85
2023/10/21 02:28:34;;;;;;;13.20;5.57;;;;;;;14.21;100.00;98508.81;5201682;28;20034;-85
2023/10/21 02:31:05;;;;;;;15.55;5.57;;;;;;;14.14;100.00;98517.03;5179104;28;20030;-85
2023/10/21 02:33:35;;;;;;;14.73;4.80;;;;;;;14.27;100.00;98515.91;5201110;28;20022;-86
2023/10/21 02:36:06;;;;;;;14.65;5.10;;;;;;;14.28;100.00;98522.94;5203107;28;20021;-83
2023/10/21 02:38:36;;;;;;;12.60;4.90;;;;;;;14.27;100.00;98517.78;5205284;28;20021;-82
2023/10/21 02:41:07;;;;;;;11.95;4.70;;;;;;;14.34;100.00;98526.50;5202591;28;20419;-82
2023/10/21 02:43:37;;;;;;;14.15;5.18;;;;;;;14.29;100.00;98521.03;5205640;28;20022;-83
2023/10/21 02:46:09;;;;;;;14.45;5.45;;;;;;;14.28;100.00;98528.31;5205223;28;20022;-82
2023/10/21 02:48:40;;;;;;;8.13;5.18;;;;;;;14.27;100.00;98523.19;5205679;28;20099;-84
2023/10/21 02:51:14;;;;;;;14.38;5.15;;;;;;;14.26;100.00;98527.75;5205102;28;20026;-84
2023/10/21 02:53:44;;;;;;;9.48;5.07;;;;;;;14.21;100.00;98528.50;5193941;28;20025;-85
2023/10/21 02:56:15;;;;;;;11.73;5.75;;;;;;;14.19;100.00;98544.09;5204367;28;20013;-85
2023/10/21 02:58:45;;;;;;;13.55;5.50;;;;;;;14.18;100.00;98542.47;5204764;28;20028;-85
2023/10/21 03:01:19;;;;;;;12.90;5.43;;;;;;;14.18;100.00;98549.75;5187941;28;20030;-85
2023/10/21 03:03:51;;;;;;;15.93;5.32;;;;;;;14.16;100.00;98544.59;5201169;28;20025;-85
2023/10/21 03:06:21;;;;;;;16.23;5.30;;;;;;;14.22;100.00;98553.59;5196589;28;20284;-85
2023/10/21 03:08:52;;;;;;;15.43;5.40;;;;;;;14.20;100.00;98555.69;5197804;28;20487;-85
2023/10/21 03:11:24;;;;;;;13.95;5.03;;;;;;;14.26;100.00;98560.13;5199573;28;20416;-84
2023/10/21 03:13:54;;;;;;;12.00;4.95;;;;;;;14.25;100.00;98567.38;5194370;28;20029;-85
2023/10/21 03:16:25;;;;;;;12.60;5.10;;;;;;;14.25;100.00;98567.38;5178253;28;20514;-85
2023/10/21 03:18:55;;;;;;;16.40;5.32;;;;;;;14.26;100.00;98568.22;5206166;28;20029;-84
2023/10/21 03:21:25;;;;;;;24.00;6.63;;;;;;;14.36;100.00;98567.56;5197965;28;20037;-85
2023/10/21 03:23:56;;;;;;;15.18;5.18;;;;;;;14.34;100.00;98565.09;5186670;28;20034;-84
2023/10/21 03:26:27;;;;;;;18.75;5.90;;;;;;;14.37;100.00;98564.59;5197168;28;20040;-85
2023/10/21 03:28:57;;;;;;;19.15;6.13;;;;;;;14.42;100.00;98567.38;5188573;28;20025;-84
2023/10/21 03:31:28;;;;;;;14.77;5.40;;;;;;;14.38;100.00;98576.22;5200360;28;20052;-86
2023/10/21 03:33:58;;;;;;;14.15;5.70;;;;;;;14.41;100.00;98567.63;5201812;28;20025;-85
2023/10/21 03:36:29;;;;;;;19.48;5.50;;;;;;;14.45;100.00;98577.66;5201480;28;20539;-85
2023/10/21 03:38:59;;;;;;;14.98;5.53;;;;;;;14.49;100.00;98578.03;5203648;28;20037;-85
2023/10/21 03:41:30;;;;;;;15.02;5.03;;;;;;;14.52;100.00;98580.25;5199350;28;20028;-85
2023/10/21 03:44:01;;;;;;;18.70;6.07;;;;;;;14.52;100.00;98585.63;5206495;28;20017;-84
2023/10/21 03:46:32;;;;;;;11.88;4.68;;;;;;;14.34;100.00;98585.84;5188036;28;20113;-84
2023/10/21 03:49:03;;;;;;;13.88;5.00;;;;;;;14.35;100.00;98588.28;5202987;28;20112;-83
2023/10/21 03:51:33;;;;;;;15.68;5.15;;;;;;;14.31;100.00;98592.56;5185819;28;20041;-83
2023/10/21 03:54:04;;;;;;;16.88;5.28;;;;;;;14.31;100.00;98595.25;5189609;28;20029;-83
2023/10/21 03:56:34;;;;;;;14.57;5.85;;;;;;;14.40;100.00;98595.66;5200287;28;20033;-84
2023/10/21 03:59:05;;;;;;;18.85;5.22;;;;;;;14.49;100.00;98602.31;5206045;28;20021;-83
2023/10/21 04:01:35;;;;;;;15.27;4.97;;;;;;;14.53;100.00;98602.63;5200718;28;20025;-83
2023/10/21 04:04:06;;;;;;;16.13;4.70;;;;;;;14.50;100.00;98606.63;5204972;28;20331;-83
2023/10/21 04:06:37;;;;;;;10.15;4.68;;;;;;;14.53;100.00;98614.25;5201586;28;20094;-84
2023/10/21 04:09:09;;;;;;;14.88;5.03;;;;;;;14.49;100.00;98615.78;5203487;28;20369;-84
2023/10/21 04:11:40;;;;;;;14.50;5.53;;;;;;;14.44;100.00;98604.91;5202052;28;20028;-84
2023/10/21 04:14:10;;;;;;;12.43;4.43;;;;;;;14.53;100.00;98616.13;5203702;28;20022;-83
2023/10/21 04:16:44;;;;;;;15.02;4.57;;;;;;;14.55;100.00;98611.28;5208031;28;20507;-82
2023/10/21 04:19:16;;;;;;;13.57;4.47;;;;;;;14.55;100.00;98614.81;5204273;28;20017;-82
2023/10/21 04:21:46;;;;;;;12.68;5.00;;;;;;;14.58;100.00;98618.91;5201246;28;20550;-82
2023/10/21 04:24:17;;;;;;;13.32;3.67;;;;;;;14.64;100.00;98620.63;5201636;28;20028;-82
2023/10/21 04:26:47;;;;;;;15.55;4.30;;;;;;;14.67;100.00;98623.66;5204482;28;20057;-83
2023/10/21 04:29:18;;;;;;;22.15;5.10;;;;;;;14.67;100.00;98620.13;5202446;28;20033;-84
2023/10/21 04:31:48;;;;;;;13.20;4.63;;;;;;;14.67;100.00;98623.66;5203278;28;20103;-82
2023/10/21 04:34:19;;;;;;;17.33;4.53;;;;;;;14.65;100.00;98625.75;5201266;28;20034;-82
2023/10/21 04:36:50;;;;;;;15.20;5.25;;;;;;;14.68;100.00;98621.75;5204256;28;20029;-84
2023/10/21 04:39:21;;;;;;;16.08;5.00;;;;;;;14.67;100.00;98625.53;5201112;28;20097;-84
2023/10/21 04:41:51;;;;;;;19.15;4.95;;;;;;;14.68;100.00;98627.16;5210108;28;20045;-83
2023/10/21 04:44:22;;;;;;;15.35;4.28;;;;;;;14.63;100.00;98636.00;5203026;28;20067;-85
2023/10/21 04:46:52;;;;;;;20.30;4.45;;;;;;;14.63;100.00;98644.09;5199053;28;20021;-85
2023/10/21 04:49:22;;;;;;;11.70;3.95;;;;;;;14.67;100.00;98644.41;5198816;28;20029;-84
2023/10/21 04:51:53;;;;;;;15.43;4.43;;;;;;;14.70;100.00;98652.00;5197087;28;20032;-85
2023/10/21 04:54:24;;;;;;;11.88;3.75;;;;;;;14.67;100.00;98649.81;5197133;28;20086;-84
2023/10/21 04:56:54;;;;;;;15.60;4.18;;;;;;;14.63;100.00;98644.09;5200935;28;20495;-85
2023/10/21 04:59:25;;;;;;;13.48;3.45;;;;;;;14.63;100.00;98656.75;5197259;28;20034;-85
2023/10/21 05:01:56;;;;;;;15.40;4.00;;;;;;;14.60;100.00;98665.34;5201680;28;20396;-84
2023/10/21 05:04:27;;;;;;;12.98;3.90;;;;;;;14.61;100.00;98667.81;5200302;28;20033;-85
2023/10/21 05:06:57;;;;;;;19.58;3.92;;;;;;;14.64;100.00;98671.88;5195394;28;20028;-85
2023/10/21 05:09:29;;;;;;;14.32;4.35;;;;;;;14.65;100.00;98674.31;5199296;28;20404;-84
2023/10/21 05:12:00;;;;;;;14.80;3.75;;;;;;;14.73;100.00;98679.31;5200943;28;20025;-83
2023/10/21 05:14:31;;;;;;;17.35;4.47;;;;;;;14.71;100.00;98678.78;5192300;28;20028;-84
2023/10/21 05:17:01;;;;;;;12.73;3.55;;;;;;;14.67;100.00;98687.59;5202985;28;20022;-84
2023/10/21 05:19:32;;;;;;;9.77;3.10;;;;;;;14.77;100.00;98698.56;5188884;28;20028;-84
2023/10/21 05:22:02;;;;;;;12.63;3.13;;;;;;;14.74;100.00;98690.94;5206212;28;20100;-83
2023/10/21 05:24:33;;;;;;;11.82;3.53;;;;;;;14.76;100.00;98702.31;5207759;28;20048;-82
2023/10/21 05:27:03;;;;;;;12.45;3.55;;;;;;;14.76;100.00;98705.84;5210416;28;20053;-83
2023/10/21 05:29:34;;;;;;;16.65;3.50;;;;;;;14.75;100.00;98712.28;5197352;28;20029;-85
2023/10/21 05:32:05;;;;;;;8.43;2.92;;;;;;;14.79;100.00;98717.19;5197730;28;20032;-85
2023/10/21 05:34:35;;;;;;;8.68;3.67;;;;;;;14.77;100.00;98720.97;5197948;28;20021;-84
2023/10/21 05:37:06;;;;;;;11.70;3.70;;;;;;;14.80;100.00;98724.22;5189179;28;20100;-84
2023/10/21 05:39:36;;;;;;;9.10;2.90;;;;;;;14.63;100.00;98716.94;5204090;28;20021;-83
2023/10/21 05:42:07;;;;;;;8.90;3.38;;;;;;;14.70;100.00;98727.56;5181669;28;20030;-84
2023/10/21 05:44:38;;;;;;;16.10;4.03;;;;;;;14.71;100.00;98730.03;5191559;28;20530;-85
2023/10/21 05:47:09;;;;;;;12.68;3.70;;;;;;;14.67;100.00;98733.47;5200869;28;20108;-83
2023/10/21 05:49:39;;;;;;;19.25;3.97;;;;;;;14.68;100.00;98735.91;5202054;28;20021;-84
2023/10/21 05:52:10;;;;;;;8.25;3.03;;;;;;;14.62;100.00;98747.69;5183016;28;20044;-84
2023/10/21 05:54:42;;;;;;;7.68;3.55;;;;;;;14.74;100.00;98745.72;5182549;28;20113;-84
2023/10/21 05:57:13;;;;;;;9.38;3.08;;;;;;;14.72;100.00;98757.84;5200521;28;20041;-84
2023/10/21 05:59:45;;;;;;;8.43;3.00;;;;;;;14.79;100.00;98773.88;5198669;28;20496;-84
2023/10/21 06:02:16;;;;;;;10.23;2.90;;;;;;;14.80;100.00;98780.91;5202775;28;20029;-84
2023/10/21 06:04:46;;;;;;;5.15;2.60;;;;;;;14.75;100.00;98787.84;5200715;28;20021;-84
2023/10/21 06:07:17;;;;;;;6.57;2.33;;;;;;;14.74;100.00;98796.19;5196058;28;20032;-85
2023/10/21 06:09:47;;;;;;;6.53;2.22;;;;;;;14.74;100.00;98799.72;5199417;28;20499;-83
2023/10/21 06:12:18;;;;;;;5.53;1.48;;;;;;;14.35;100.00;98822.16;5207822;28;20075;-84
2023/10/21 06:14:50;;;;;;;1.65;1.20;;;;;;;14.29;100.00;98821.22;5187293;28;20032;-82
2023/10/21 06:17:20;;;;;;;2.55;1.20;;;;;;;14.24;100.00;98848.09;5180368;28;20087;-85
2023/10/21 06:19:52;;;;;;;3.17;0.85;;;;;;;14.08;100.00;98857.75;5202444;28;20220;-83
2023/10/21 06:22:22;;;;;;;3.75;1.00;;;;;;;13.94;100.00;98869.84;5201922;28;20029;-85
2023/10/21 06:24:53;;;;;;;2.70;0.90;;;;;;;14.05;100.00;98874.38;5201045;28;20072;-83
2023/10/21 06:27:23;;;;;;;3.10;0.80;;;;;;;14.06;100.00;98896.81;5217026;28;20040;-83
2023/10/21 06:29:56;;;;;;;1.08;0.60;;;;;;;13.72;100.00;98902.78;5207074;28;20044;-82
2023/10/21 06:32:48;;;;;;;4.20;1.20;;;;;;;13.75;100.00;98901.47;5203451;28;20511;-83
2023/10/21 06:35:41;;;;;;;3.95;0.90;;;;;;;13.74;100.00;98908.75;5201710;28;20040;-84
2023/10/21 06:38:24;;;;;;;3.45;0.73;;;;;;;13.67;100.00;98907.22;5203824;28;20094;-83
2023/10/21 06:41:03;;;;;;;;;;;;;;;13.64;100.00;98921.97;5204402;28;20033;-83
2023/10/21 06:43:35;;;;;;;7.40;0.98;;;;;;;13.69;100.00;98926.66;5199435;28;19920;-83
2023/10/21 06:46:06;;;;;;;2.25;0.73;;;;;;;13.72;100.00;98935.13;5168381;28;20559;-83
2023/10/21 06:48:39;;;;;;;3.60;1.25;;;;;;;13.76;100.00;98946.25;5201577;28;20063;-84
2023/10/21 06:51:10;;;;;;;2.70;0.70;;;;;;;13.89;100.00;98955.97;5202310;28;20073;-83
2023/10/21 06:53:40;;;;;;;3.25;0.63;;;;;;;14.24;100.00;98959.50;5197785;28;20489;-84
2023/10/21 06:56:12;;;;;;;4.90;1.05;;;;;;;14.21;100.00;98961.84;5187062;28;20028;-82
2023/10/21 06:58:47;;;;;;;2.67;1.00;;;;;;;14.26;100.00;98970.06;5184795;28;20025;-81
2023/10/21 07:01:18;;;;;;;1.38;0.90;;;;;;;14.15;100.00;98974.38;5204922;28;20052;-81
2023/10/21 07:03:49;;;;;;;2.38;0.80;;;;;;;14.22;100.00;98983.19;5204620;28;20017;-82
2023/10/21 07:06:21;;;;;;;0.90;0.68;;;;;;;14.09;100.00;98975.31;5203661;28;20040;-86
2023/10/21 07:08:51;;;;;;;5.43;1.45;;;;;;;14.27;100.00;98978.97;5185351;28;20105;-84
2023/10/21 07:11:23;;;;;;;2.38;0.82;;;;;;;14.27;100.00;98987.06;5190299;28;20108;-83
2023/10/21 07:13:54;;;;;;;4.47;0.63;;;;;;;14.24;100.00;98986.47;5203486;28;20026;-83
2023/10/21 07:16:25;;;;;;;2.63;0.75;;;;;;;14.35;100.00;98997.47;5207054;28;20044;-83
2023/10/21 07:18:55;;;;;;;2.85;0.60;;;;;;;14.23;100.00;99003.69;5188554;28;20028;-84
2023/10/21 07:21:27;;;;;;;0.82;0.65;;;;;;;14.19;100.00;99005.22;5199962;28;20028;-83
2023/10/21 07:23:58;;;;;;;5.78;1.20;;;;;;;14.20;100.00;99014.13;5200193;28;20025;-84
2023/10/21 07:26:29;;;;;;;4.57;1.33;;;;;;;14.16;100.00;99032.66;5204541;28;20071;-84
2023/10/21 07:28:59;;;;;;;5.97;0.77;;;;;;;14.26;100.00;99037.50;5203714;28;20021;-84
2023/10/21 07:31:30;;;;;;;5.03;1.02;;;;;;;14.33;100.00;99035.47;5204533;28;20022;-82
2023/10/21 07:34:01;;;;;;;2.08;0.68;;;;;;;14.25;100.00;99035.81;5205855;28;20024;-82
2023/10/21 07:36:34;;;;;;;7.15;2.35;;;;;;;14.22;100.00;99047.09;5202800;28;20029;-81
2023/10/21 07:39:04;;;;;;;3.03;1.33;;;;;;;14.25;100.00;99052.00;5206207;28;20549;-82
2023/10/21 07:41:35;;;;;;;2.97;0.60;;;;;;;14.24;100.00;99047.66;5202730;28;20052;-82
2023/10/21 07:44:05;;;;;;;2.25;0.70;;;;;;;14.21;100.00;99058.94;5203330;28;20075;-81
2023/10/21 07:46:36;;;;;;;5.25;1.13;;;;;;;14.34;100.00;99057.88;5194018;28;20542;-81
2023/10/21 07:49:07;;;;;;;3.75;0.60;;;;;;;14.29;100.00;99057.75;5206361;28;20052;-81
2023/10/21 07:51:37;;;;;;;1.95;0.52;;;;;;;14.40;100.00;99067.72;5205596;28;20022;-82
2023/10/21 07:54:08;;;;;;;2.60;0.70;;;;;;;14.44;100.00;99064.31;5203445;28;20519;-82
2023/10/21 07:56:38;;;;;;;5.53;1.10;;;;;;;14.24;100.00;99074.63;5206250;28;20104;-82
2023/10/21 07:59:11;;;;;;;3.30;1.00;;;;;;;14.31;100.00;99074.53;5202751;28;20021;-82
2023/10/21 08:01:41;;;;;;;7.22;1.30;;;;;;;14.57;100.00;99074.09;5201429;28;20036;-82
2023/10/21 08:04:12;;;;;;;2.80;0.60;;;;;;;14.59;100.00;99079.25;5205281;28;20096;-82
2023/10/21 08:06:44;;;;;;;2.70;0.90;;;;;;;14.58;100.00;99077.63;5203568;28;20022;-82
2023/10/21 08:09:15;;;;;;;4.47;1.00;;;;;;;14.67;100.00;99073.53;5211585;28;20056;-83
2023/10/21 08:11:46;;;;;;;5.60;0.95;;;;;;;14.62;100.00;99085.03;5210341;28;20026;-83
2023/10/21 08:14:17;;;;;;;3.00;0.50;;;;;;;14.73;100.00;99084.19;5209242;28;20570;-82
2023/10/21 08:16:48;;;;;;;2.72;0.82;;;;;;;14.85;100.00;99088.75;5208223;28;20044;-83
2023/10/21 08:19:18;;;;;;;1.67;0.60;;;;;;;14.73;100.00;99092.28;5211744;28;20026;-82
2023/10/21 08:21:49;;;;;;;2.67;0.50;;;;;;;14.98;100.00;99099.31;5213065;28;20017;-82
2023/10/21 08:24:20;;;;;;;1.38;0.30;;;;;;;15.27;100.00;99100.19;5211206;28;20112;-83
2023/10/21 08:26:50;;;;;;;3.38;0.63;;;;;;;15.29;100.00;99096.16;5205838;28;20160;-83
2023/10/21 08:29:21;;;;;;;4.13;0.60;;;;;;;15.34;100.00;99105.44;5208449;28;20125;-83
2023/10/21 08:31:51;;;;;;;5.47;0.85;;;;;;;15.32;100.00;99107.56;5208809;28;20530;-82
2023/10/21 08:34:22;;;;;;;4.95;0.93;;;;;;;15.13;100.00;99115.81;5207928;28;20032;-83
2023/10/21 08:36:54;;;;;;;3.08;0.60;;;;;;;15.23;100.00;99120.63;5209010;28;20803;-83
2023/10/21 08:39:24;;;;;;;5.10;0.75;;;;;;;15.23;100.00;99120.63;5211041;28;20030;-82
2023/10/21 08:41:55;;;;;;;6.57;1.13;;;;;;;15.14;100.00;99122.88;5205718;28;20087;-83
2023/10/21 08:44:26;;;;;;;2.72;0.80;;;;;;;15.07;100.00;99121.38;5201608;28;20022;-83
2023/10/21 08:46:58;;;;;;;2.50;0.70;;;;;;;15.40;100.00;99123.38;5208712;28;20052;-84
2023/10/21 08:49:31;;;;;;;7.45;1.52;;;;;;;15.31;100.00;99149.97;5205437;28;20026;-84
2023/10/21 08:52:02;;;;;;;2.00;0.60;;;;;;;15.27;100.00;99135.31;5203971;28;20025;-84
2023/10/21 08:54:34;;;;;;;5.63;0.93;;;;;;;15.18;100.00;99139.44;5206536;28;20077;-84
2023/10/21 08:57:05;;;;;;;5.18;1.10;;;;;;;15.09;100.00;99140.84;5206747;28;20085;-84
2023/10/21 08:59:36;;;;;;;10.65;1.17;;;;;;;15.18;100.00;99148.34;5206727;28;20108;-83
2023/10/21 09:02:07;;;;;;;5.80;0.80;;;;;;;15.10;100.00;99145.19;5207800;28;20017;-83
2023/10/21 09:04:37;;;;;;;4.13;1.10;;;;;;;15.09;100.00;99154.34;5205903;28;20109;-83
2023/10/21 09:07:08;;;;;;;7.55;1.30;;;;;;;15.18;100.00;99155.63;5207531;28;20018;-83
2023/10/21 09:09:38;;;;;;;5.82;0.93;;;;;;;15.24;100.00;99160.91;5206493;28;20040;-84
2023/10/21 09:12:13;;;;;;;4.25;0.85;;;;;;;15.23;100.00;99170.06;5203728;28;20045;-84
2023/10/21 09:14:58;;;;;;;3.83;1.00;;;;;;;15.11;100.00;99166.56;5202331;28;20018;-83
2023/10/21 09:17:35;;;;;;;4.82;1.13;;;;;;;15.26;100.00;99172.31;5201589;28;20691;-84
2023/10/21 09:20:09;;;;;;;10.00;1.42;;;;;;;15.45;100.00;99156.75;5199652;28;20017;-85
2023/10/21 09:22:42;;;;;;;5.18;0.95;;;;;;;15.57;100.00;99164.03;5199912;28;20025;-84
2023/10/21 09:25:16;;;;;;;6.57;0.80;;;;;;;15.67;100.00;99158.84;5201522;28;20022;-85
2023/10/21 09:27:53;;;;;;;7.55;1.05;;;;;;;15.63;100.00;99163.06;5197079;28;20030;-84
2023/10/21 09:30:25;;;;;;;9.32;1.67;;;;;;;15.92;100.00;99166.63;5198716;28;20041;-85
2023/10/21 09:33:05;;;;;;;4.00;1.15;;;;;;;16.12;100.00;99177.81;5179670;28;20487;-85
2023/10/21 09:35:36;;;;;;;8.80;1.48;;;;;;;16.07;100.00;99166.91;5199466;28;20033;-85
2023/10/21 09:38:16;;;;;;;6.95;1.23;;;;;;;16.11;100.00;99168.03;5201121;28;20033;-84
2023/10/21 09:40:48;;;;;;;8.45;0.95;;;;;;;16.19;100.00;99185.78;5195571;28;20122;-83
2023/10/21 09:43:22;;;;;;;6.20;0.90;;;;;;;16.37;100.00;99173.94;5200850;28;20104;-83
2023/10/21 09:45:57;;;;;;;5.10;1.20;;;;;;;16.54;100.00;99163.91;5198074;28;20040;-84
2023/10/21 09:48:32;;;;;;;6.45;1.50;;;;;;;16.79;100.00;99182.50;5194829;28;20029;-84
2023/10/21 09:51:09;;;;;;;8.30;1.17;;;;;;;16.79;100.00;99169.75;5173240;28;20032;-84
2023/10/21 09:53:45;;;;;;;7.20;1.05;;;;;;;17.13;100.00;99185.16;5196500;28;20028;-84
2023/10/21 09:56:17;;;;;;;11.02;1.50;;;;;;;16.93;100.00;99185.69;5200011;28;20025;-85
2023/10/21 09:58:49;;;;;;;8.35;1.33;;;;;;;17.00;100.00;99175.47;5201167;28;20029;-84
2023/10/21 10:01:23;;;;;;;7.57;1.35;;;;;;;16.70;100.00;99176.63;5201176;28;20037;-83
2023/10/21 10:03:55;;;;;;;8.85;1.20;;;;;;;16.88;100.00;99174.78;5188477;28;20043;-84
2023/10/21 10:06:26;;;;;;;7.07;1.40;;;;;;;16.72;100.00;99176.44;5199223;28;20030;-83
2023/10/21 10:08:57;;;;;;;9.73;1.50;;;;;;;16.94;100.00;99180.00;5201158;28;20017;-84
2023/10/21 10:11:27;;;;;;;6.05;1.25;;;;;;;17.06;100.00;99180.72;5200976;28;20029;-84
2023/10/21 10:13:58;;;;;;;7.32;1.35;;;;;;;17.06;100.00;99190.72;5201475;28;20442;-84
2023/10/21 10:16:31;;;;;;;8.27;1.55;;;;;;;17.12;100.00;99183.50;5201428;28;20029;-86
2023/10/21 10:19:05;;;;;;;17.48;2.75;;;;;;;16.81;100.00;99183.88;5201627;28;20021;-85
2023/10/21 10:21:36;;;;;;;11.45;1.38;;;;;;;16.73;100.00;99187.00;5201297;28;20032;-84
2023/10/21 10:24:07;;;;;;;9.60;2.03;;;;;;;16.41;100.00;99181.28;5199266;28;20010;-84
2023/10/21 10:26:38;;;;;;;12.13;2.50;;;;;;;16.65;100.00;99186.56;5201913;28;20108;-83
2023/10/21 10:29:18;;;;;;;9.70;1.83;;;;;;;16.52;100.00;99182.31;5185334;28;20105;-84
2023/10/21 10:31:51;;;;;;;11.68;1.60;;;;;;;16.36;100.00;99193.91;5193436;28;20028;-85
2023/10/21 10:34:22;;;;;;;7.78;1.33;;;;;;;16.35;100.00;99189.56;5201390;28;20022;-84
2023/10/21 10:36:53;;;;;;;12.57;2.13;;;;;;;16.39;100.00;99205.06;5199616;28;20021;-87
2023/10/21 10:39:40;;;;;;;8.10;1.58;;;;;;;16.63;100.00;99205.75;5202550;28;20053;-85
2023/10/21 10:42:10;;;;;;;7.07;1.45;;;;;;;16.49;100.00;99215.25;5200317;28;20100;-86
2023/10/21 10:44:42;;;;;;;8.20;1.45;;;;;;;16.45;100.00;99217.63;5198255;28;20032;-85
2023/10/21 10:47:12;;;;;;;10.82;2.10;;;;;;;16.21;100.00;99229.63;5199586;28;20025;-85
2023/10/21 10:49:56;;;;;;;8.02;1.48;;;;;;;16.12;100.00;99223.00;5196970;28;20372;-85
2023/10/21 10:52:28;;;;;;;10.95;1.85;;;;;;;16.37;100.00;99217.22;5196777;28;20029;-86
2023/10/21 10:54:59;;;;;;;7.60;1.45;;;;;;;17.18;100.00;99212.34;5200575;28;20577;-86
2023/10/21 10:57:30;;;;;;;10.23;2.17;;;;;;;17.48;100.00;99228.19;5196775;28;20101;-86
2023/10/21 11:00:03;;;;;;;13.07;2.28;;;;;;;17.25;100.00;99196.69;5203635;28;20313;-85
2023/10/21 11:02:42;;;;;;;10.90;1.95;;;;;;;16.91;100.00;99207.56;5184447;28;20446;-85
2023/10/21 11:05:20;;;;;;;7.53;1.30;;;;;;;17.11;100.00;99209.78;5198993;28;20496;-84
2023/10/21 11:07:52;;;;;;;9.18;1.98;;;;;;;17.51;100.00;99214.94;5203636;28;20022;-85
2023/10/21 11:10:24;;;;;;;13.77;2.08;;;;;;;17.55;100.00;99207.94;5200194;28;20557;-83
2023/10/21 11:12:55;;;;;;;15.20;2.63;;;;;;;17.43;100.00;99223.53;5202106;28;20040;-85
2023/10/21 11:15:25;;;;;;;14.35;1.67;;;;;;;17.34;100.00;99236.69;5202910;28;20025;-85
2023/10/21 11:17:56;;;;;;;11.35;1.80;;;;;;;17.30;100.00;99230.13;5199271;28;20040;-86
2023/10/21 11:20:27;;;;;;;12.15;2.00;;;;;;;17.44;100.00;99232.47;5199880;28;20029;-86
2023/10/21 11:22:57;;;;;;;13.10;2.25;;;;;;;17.64;100.00;99226.50;5178900;28;20029;-86
2023/10/21 11:25:28;;;;;;;11.18;1.88;;;;;;;18.00;100.00;99222.34;5192747;28;20446;-84
2023/10/21 11:27:58;;;;;;;10.23;1.77;;;;;;;18.11;100.00;99227.63;5198721;28;20036;-85
2023/10/21 11:30:30;;;;;;;8.55;1.80;;;;;;;18.16;100.00;99210.59;5178777;28;20108;-86
2023/10/21 11:33:10;;;;;;;13.07;2.05;;;;;;;17.95;100.00;99228.53;5193504;28;20029;-86
2023/10/21 11:35:41;;;;;;;10.75;2.30;;;;;;;17.83;100.00;99236.00;5201392;28;20024;-84
2023/10/21 11:38:14;;;;;;;12.07;2.13;;;;;;;17.58;100.00;99231.03;5197834;28;20036;-85
2023/10/21 11:40:45;;;;;;;13.15;2.17;;;;;;;17.57;100.00;99226.66;5193127;28;20025;-84
2023/10/21 11:43:18;;;;;;;9.50;1.73;;;;;;;17.32;100.00;99232.59;5187570;28;20101;-84